Time;durP1;ratioP1;P1;durP2;ratioP2;P2;SDS_P1;SDS_P2;PMS_P1;PMS_P2;Temp;Humidity;BMP_temperature;BMP_pressure;BME280_temperature;BME280_humidity;BME280_pressure;Samples;Min_cycle;Max_cycle;Signal;HPM_P1;HPM_P2
2020/12/20 00:00:42;;;;;;;47.47;6.07;;;10.00;99.90;;;;;;5069832;28;20064;-53
2020/12/20 00:03:08;;;;;;;44.65;5.88;;;10.10;99.90;;;;;;5069732;28;20386;-50
2020/12/20 00:05:33;;;;;;;48.05;6.70;;;10.10;99.90;;;;;;5070025;28;20039;-54
2020/12/20 00:07:59;;;;;;;52.50;6.22;;;10.20;99.90;;;;;;5034995;28;20029;-52
2020/12/20 00:10:25;;;;;;;65.22;6.68;;;10.30;99.90;;;;;;5069672;28;20021;-52
2020/12/20 00:12:51;;;;;;;44.53;5.38;;;10.40;99.90;;;;;;5054273;28;20036;-52
2020/12/20 00:15:19;;;;;;;52.38;6.18;;;10.40;99.90;;;;;;5052196;28;20171;-51
2020/12/20 00:17:51;;;;;;;49.92;6.25;;;10.50;99.90;;;;;;5069305;28;20048;-51
2020/12/20 00:20:18;;;;;;;46.10;6.57;;;10.50;99.90;;;;;;5069348;28;20032;-50
2020/12/20 00:22:44;;;;;;;51.75;6.50;;;10.50;99.90;;;;;;5069547;28;20486;-50
2020/12/20 00:25:10;;;;;;;42.42;6.32;;;10.40;99.90;;;;;;5069697;28;20102;-51
2020/12/20 00:27:36;;;;;;;49.90;7.70;;;10.50;99.90;;;;;;5070076;28;20037;-52
2020/12/20 00:30:04;;;;;;;42.75;5.93;;;10.50;99.90;;;;;;5069596;28;20044;-52
2020/12/20 00:32:29;;;;;;;50.20;7.28;;;10.50;99.90;;;;;;5069282;28;20466;-51
2020/12/20 00:34:55;;;;;;;42.30;6.20;;;10.60;99.90;;;;;;5069265;28;20032;-52
2020/12/20 00:37:21;;;;;;;55.53;6.53;;;10.50;99.90;;;;;;5069476;28;20047;-51
2020/12/20 00:39:47;;;;;;;55.83;6.28;;;10.50;99.90;;;;;;5069328;28;20098;-53
2020/12/20 00:42:12;;;;;;;40.03;6.15;;;10.60;99.90;;;;;;5069387;28;20463;-51
2020/12/20 00:44:39;;;;;;;41.65;5.40;;;10.50;99.90;;;;;;5069192;28;20134;-50
2020/12/20 00:47:05;;;;;;;54.58;5.95;;;10.60;99.90;;;;;;5069625;28;20029;-50
2020/12/20 00:49:33;;;;;;;49.78;6.05;;;10.60;99.90;;;;;;5069126;28;20101;-51
2020/12/20 00:52:00;;;;;;;49.63;5.95;;;10.60;99.90;;;;;;5069268;28;20360;-50
2020/12/20 00:54:26;;;;;;;44.22;6.35;;;10.60;99.90;;;;;;5050707;28;20405;-50
2020/12/20 00:56:52;;;;;;;52.80;6.63;;;10.60;99.90;;;;;;5069104;28;20115;-53
2020/12/20 00:59:18;;;;;;;43.60;5.80;;;10.50;99.90;;;;;;5071019;28;20111;-54
2020/12/20 01:01:44;;;;;;;49.55;6.22;;;10.60;99.90;;;;;;5069230;28;20153;-50
2020/12/20 01:04:10;;;;;;;61.65;7.13;;;10.60;99.90;;;;;;5068360;28;20042;-52
2020/12/20 01:06:36;;;;;;;59.60;6.60;;;10.60;99.90;;;;;;5068388;28;20433;-49
2020/12/20 01:09:02;;;;;;;51.08;6.53;;;10.50;99.90;;;;;;5068487;28;20052;-51
2020/12/20 01:11:28;;;;;;;49.90;7.22;;;10.50;99.90;;;;;;5068906;28;20025;-48
2020/12/20 01:13:54;;;;;;;47.30;6.20;;;10.50;99.90;;;;;;5068255;28;20033;-48
2020/12/20 01:16:23;;;;;;;53.28;6.65;;;10.40;99.90;;;;;;5068756;28;20058;-49
2020/12/20 01:18:49;;;;;;;57.90;7.75;;;10.50;99.90;;;;;;5068968;28;20048;-49
2020/12/20 01:21:15;;;;;;;50.70;6.47;;;10.50;99.90;;;;;;5068558;28;20784;-51
2020/12/20 01:23:40;;;;;;;49.47;6.65;;;10.50;99.90;;;;;;5068453;28;20079;-49
2020/12/20 01:26:06;;;;;;;50.55;6.35;;;10.60;99.90;;;;;;5068801;28;20041;-51
2020/12/20 01:28:33;;;;;;;68.88;6.85;;;10.60;99.90;;;;;;5068474;28;20414;-49
2020/12/20 01:31:11;;;;;;;55.03;6.38;;;10.60;99.90;;;;;;5068618;28;20036;-48
2020/12/20 01:33:38;;;;;;;60.15;6.95;;;10.70;99.90;;;;;;5068030;28;20094;-51
2020/12/20 01:36:11;;;;;;;56.33;7.50;;;10.80;99.90;;;;;;5068175;28;20553;-47
2020/12/20 01:38:37;;;;;;;44.25;6.32;;;10.80;99.90;;;;;;5068308;28;20024;-51
2020/12/20 01:41:04;;;;;;;22.20;3.38;;;10.80;99.90;;;;;;5068190;28;20024;-48
2020/12/20 01:43:48;;;;;;;18.98;1.90;;;10.50;99.90;;;;;;5067322;28;20121;-51
2020/12/20 01:46:20;;;;;;;22.33;2.88;;;10.20;99.90;;;;;;5068667;28;20035;-51
2020/12/20 01:48:50;;;;;;;19.67;2.35;;;9.90;99.90;;;;;;5067532;28;20064;-49
2020/12/20 01:51:16;;;;;;;19.58;2.55;;;9.80;99.90;;;;;;5067396;28;20035;-49
2020/12/20 01:53:42;;;;;;;19.08;3.03;;;9.80;99.90;;;;;;5068659;28;20032;-49
2020/12/20 01:56:08;;;;;;;24.45;3.05;;;9.70;99.90;;;;;;5068463;28;20483;-51
2020/12/20 01:58:38;;;;;;;30.02;3.67;;;9.50;99.90;;;;;;5068518;28;20057;-51
2020/12/20 02:01:09;;;;;;;24.30;3.47;;;9.40;99.90;;;;;;5068423;28;20111;-52
2020/12/20 02:03:36;;;;;;;26.75;2.63;;;9.20;99.90;;;;;;5068006;28;20037;-52
2020/12/20 02:06:05;;;;;;;23.52;2.90;;;9.00;99.90;;;;;;5067902;28;20382;-54
2020/12/20 02:08:32;;;;;;;24.20;3.55;;;8.90;99.90;;;;;;5068213;28;20029;-54
2020/12/20 02:11:10;;;;;;;12.48;2.53;;;8.90;99.90;;;;;;5068425;28;20029;-54
2020/12/20 02:13:44;;;;;;;17.85;2.72;;;8.90;99.90;;;;;;5049458;28;20032;-53
2020/12/20 02:16:15;;;;;;;10.57;1.80;;;8.80;99.90;;;;;;5067719;28;20079;-51
2020/12/20 02:18:41;;;;;;;9.52;1.65;;;8.80;99.90;;;;;;5070902;28;20078;-52
2020/12/20 02:21:18;;;;;;;13.00;1.52;;;8.80;99.90;;;;;;5074659;28;20036;-51
2020/12/20 02:23:48;;;;;;;13.73;1.83;;;8.70;99.90;;;;;;5072115;28;20055;-51
2020/12/20 02:26:17;;;;;;;7.25;1.83;;;8.60;99.90;;;;;;5072375;28;20458;-51
2020/12/20 02:28:44;;;;;;;16.63;2.00;;;8.60;99.90;;;;;;5071804;28;20052;-51
2020/12/20 02:31:09;;;;;;;12.32;1.75;;;8.50;99.90;;;;;;5074194;28;20036;-53
2020/12/20 02:33:35;;;;;;;16.77;1.85;;;8.50;99.90;;;;;;5072443;28;20023;-54
2020/12/20 02:36:02;;;;;;;11.82;1.90;;;8.40;99.90;;;;;;5072309;28;20054;-51
2020/12/20 02:38:29;;;;;;;13.23;1.85;;;8.50;99.90;;;;;;5071907;28;20056;-51
2020/12/20 02:40:55;;;;;;;6.20;1.38;;;8.50;99.90;;;;;;5072226;28;20040;-54
2020/12/20 02:43:21;;;;;;;9.77;1.83;;;8.60;99.90;;;;;;5072006;28;20514;-53
2020/12/20 02:45:50;;;;;;;12.80;1.58;;;8.60;99.90;;;;;;5078189;28;20043;-51
2020/12/20 02:48:16;;;;;;;11.65;1.63;;;8.60;99.90;;;;;;5092823;28;20032;-52
2020/12/20 02:50:41;;;;;;;15.10;2.45;;;8.60;99.90;;;;;;5093101;28;20024;-53
2020/12/20 02:53:07;;;;;;;12.32;1.92;;;8.60;99.90;;;;;;5091001;28;20754;-50
2020/12/20 02:55:33;;;;;;;12.05;1.70;;;8.50;99.90;;;;;;5091607;28;20474;-50
2020/12/20 02:57:58;;;;;;;13.52;1.73;;;8.60;99.90;;;;;;5092692;28;20474;-53
2020/12/20 03:00:24;;;;;;;10.30;2.00;;;8.50;99.90;;;;;;5092772;28;20046;-53
2020/12/20 03:02:49;;;;;;;21.48;2.33;;;8.50;99.90;;;;;;5093211;28;20035;-50
2020/12/20 03:05:17;;;;;;;14.93;2.13;;;8.60;99.90;;;;;;5092956;28;20031;-51
2020/12/20 03:07:44;;;;;;;22.25;2.92;;;8.80;99.90;;;;;;5092905;28;20129;-49
2020/12/20 03:10:09;;;;;;;16.92;2.35;;;8.90;99.90;;;;;;5092981;28;20063;-50
2020/12/20 03:12:35;;;;;;;9.63;2.33;;;8.90;99.90;;;;;;5092913;28;20063;-51
2020/12/20 03:15:01;;;;;;;12.18;1.92;;;8.90;99.90;;;;;;5093138;28;20483;-52
2020/12/20 03:17:26;;;;;;;13.93;2.35;;;8.90;99.90;;;;;;5092596;28;20043;-50
2020/12/20 03:19:52;;;;;;;21.55;2.97;;;9.00;99.90;;;;;;5092984;28;20652;-49
2020/12/20 03:22:18;;;;;;;31.13;3.72;;;9.00;99.90;;;;;;5092238;28;20056;-52
2020/12/20 03:24:43;;;;;;;20.40;3.33;;;9.00;99.90;;;;;;5092470;28;20039;-50
2020/12/20 03:27:09;;;;;;;37.28;3.75;;;9.10;99.90;;;;;;5092073;28;20370;-51
2020/12/20 03:29:35;;;;;;;32.28;3.47;;;9.10;99.90;;;;;;5092079;28;20074;-52
2020/12/20 03:32:01;;;;;;;22.02;3.38;;;9.10;99.90;;;;;;5091806;28;20031;-50
2020/12/20 03:34:26;;;;;;;23.20;4.25;;;9.10;99.90;;;;;;5091834;28;20520;-50
2020/12/20 03:36:52;;;;;;;46.80;5.57;;;9.20;99.90;;;;;;5092179;28;20032;-52
2020/12/20 03:39:18;;;;;;;30.50;3.53;;;9.10;99.90;;;;;;5092477;28;20039;-50
2020/12/20 03:41:43;;;;;;;36.03;3.63;;;9.20;99.90;;;;;;5092130;28;20043;-51
2020/12/20 03:44:09;;;;;;;42.35;4.53;;;9.20;99.90;;;;;;5092232;28;20032;-51
2020/12/20 03:46:35;;;;;;;41.60;4.38;;;9.30;99.90;;;;;;5092094;28;20103;-52
2020/12/20 03:49:00;;;;;;;42.90;5.57;;;9.30;99.90;;;;;;5091557;28;20028;-52
2020/12/20 03:51:26;;;;;;;50.22;5.97;;;9.30;99.90;;;;;;5091924;28;20056;-51
2020/12/20 03:53:52;;;;;;;44.92;5.45;;;9.30;99.90;;;;;;5092235;28;20727;-52
2020/12/20 03:56:17;;;;;;;42.88;5.35;;;9.40;99.90;;;;;;5091750;28;20059;-50
2020/12/20 03:58:43;;;;;;;47.03;5.97;;;9.50;99.90;;;;;;5092115;28;20028;-50
2020/12/20 04:01:08;;;;;;;35.58;4.65;;;9.60;99.90;;;;;;5092386;28;20036;-54
2020/12/20 04:03:34;;;;;;;52.20;6.07;;;9.60;99.90;;;;;;5092205;28;20043;-51
2020/12/20 04:06:00;;;;;;;45.35;6.68;;;9.70;99.90;;;;;;5091889;28;20039;-53
2020/12/20 04:08:25;;;;;;;30.42;4.72;;;9.70;99.90;;;;;;5092514;28;20093;-54
2020/12/20 04:10:51;;;;;;;26.33;4.13;;;9.70;99.90;;;;;;5092532;28;20452;-53
2020/12/20 04:13:17;;;;;;;30.83;4.18;;;9.70;99.90;;;;;;5091577;28;20024;-51
2020/12/20 04:15:42;;;;;;;27.55;3.63;;;9.70;99.90;;;;;;5091337;28;20055;-51
2020/12/20 04:18:08;;;;;;;33.83;4.47;;;9.70;99.90;;;;;;5091748;28;20040;-54
2020/12/20 04:20:33;;;;;;;41.47;5.90;;;9.70;99.90;;;;;;5091301;28;20448;-51
2020/12/20 04:22:59;;;;;;;32.50;4.72;;;9.60;99.90;;;;;;5088381;28;20051;-50
2020/12/20 04:25:25;;;;;;;34.28;5.32;;;9.60;99.90;;;;;;5091130;28;20709;-52
2020/12/20 04:27:50;;;;;;;28.60;3.78;;;9.60;99.90;;;;;;5091096;28;20032;-54
2020/12/20 04:30:16;;;;;;;29.75;4.47;;;9.60;99.90;;;;;;5091960;28;20357;-52
2020/12/20 04:32:42;;;;;;;40.42;4.68;;;9.60;99.90;;;;;;5091401;28;20442;-51
2020/12/20 04:35:10;;;;;;;44.20;7.30;;;9.50;99.90;;;;;;5091364;28;20105;-51
2020/12/20 04:37:36;;;;;;;30.17;4.25;;;9.50;99.90;;;;;;5091441;28;20040;-51
2020/12/20 04:40:06;;;;;;;42.25;4.80;;;9.50;99.90;;;;;;5090709;28;20256;-49
2020/12/20 04:42:31;;;;;;;40.70;4.60;;;9.60;99.90;;;;;;5091366;28;20434;-53
2020/12/20 04:44:57;;;;;;;34.58;5.13;;;9.70;99.90;;;;;;5091743;28;20118;-51
2020/12/20 04:47:24;;;;;;;34.22;4.80;;;9.70;99.90;;;;;;5091534;28;20028;-54
2020/12/20 04:49:52;;;;;;;33.63;4.43;;;9.70;99.90;;;;;;5092024;28;20032;-50
2020/12/20 04:52:21;;;;;;;46.45;6.13;;;9.80;99.90;;;;;;5091246;28;20028;-51
2020/12/20 04:54:47;;;;;;;48.97;5.88;;;9.80;99.90;;;;;;5090783;28;20412;-51
2020/12/20 04:57:16;;;;;;;34.97;5.25;;;9.80;99.90;;;;;;5087727;28;20055;-51
2020/12/20 04:59:42;;;;;;;45.63;6.53;;;9.80;99.90;;;;;;5090822;28;20028;-48
2020/12/20 05:02:09;;;;;;;36.35;4.82;;;9.80;99.90;;;;;;5090858;28;20489;-50
2020/12/20 05:04:36;;;;;;;39.78;4.68;;;9.80;99.90;;;;;;5091443;28;20035;-52
2020/12/20 05:07:03;;;;;;;32.40;4.70;;;9.80;99.90;;;;;;5091390;28;20028;-49
2020/12/20 05:09:29;;;;;;;39.85;4.50;;;9.80;99.90;;;;;;5090454;28;20428;-49
2020/12/20 05:11:55;;;;;;;33.13;5.75;;;9.80;99.90;;;;;;5090751;28;20032;-51
2020/12/20 05:14:31;;;;;;;35.20;5.13;;;9.80;99.90;;;;;;5090367;28;20043;-50
2020/12/20 05:16:57;;;;;;;32.83;4.38;;;9.90;99.90;;;;;;5072234;28;20499;-51
2020/12/20 05:19:31;;;;;;;41.63;5.43;;;9.90;99.90;;;;;;5090171;28;20089;-50
2020/12/20 05:22:16;;;;;;;38.35;5.10;;;9.90;99.90;;;;;;5090250;28;20024;-49
2020/12/20 05:24:45;;;;;;;49.58;6.68;;;10.00;99.90;;;;;;5090517;28;20044;-50
2020/12/20 05:27:31;;;;;;;34.72;5.50;;;10.00;99.90;;;;;;5089936;28;20040;-52
2020/12/20 05:30:17;;;;;;;24.40;3.75;;;9.90;99.90;;;;;;5089530;28;20047;-51
2020/12/20 05:32:44;;;;;;;40.60;4.95;;;10.00;99.90;;;;;;5089449;28;20076;-53
2020/12/20 05:35:15;;;;;;;39.70;4.80;;;10.00;99.90;;;;;;5089718;28;20047;-49
2020/12/20 05:37:42;;;;;;;38.95;5.32;;;10.00;99.90;;;;;;5089630;28;20044;-50
2020/12/20 05:40:26;;;;;;;38.55;4.85;;;10.00;99.90;;;;;;5089805;28;20069;-51
2020/12/20 05:42:55;;;;;;;;;;;10.00;99.90;;;;;;5090048;28;20115;-51
2020/12/20 05:45:27;;;;;;;37.20;4.35;;;10.20;99.90;;;;;;5089600;28;19943;-54
2020/12/20 05:47:53;;;;;;;29.00;4.47;;;10.20;99.90;;;;;;5079446;28;20482;-50
2020/12/20 05:50:19;;;;;;;40.63;5.05;;;10.30;99.90;;;;;;5069304;28;20032;-49
2020/12/20 05:53:00;;;;;;;32.40;4.45;;;10.30;99.90;;;;;;5068483;28;20319;-49
2020/12/20 05:55:40;;;;;;;26.65;4.53;;;10.30;99.90;;;;;;5068778;28;20059;-53
2020/12/20 05:58:13;;;;;;;38.55;4.85;;;10.30;99.90;;;;;;5061958;28;20110;-50
2020/12/20 06:00:40;;;;;;;36.20;5.25;;;10.20;99.90;;;;;;5089239;28;20056;-49
2020/12/20 06:03:07;;;;;;;35.53;5.00;;;10.20;99.90;;;;;;5074069;28;20032;-51
2020/12/20 06:05:44;;;;;;;41.85;5.55;;;10.30;99.90;;;;;;5088555;28;20071;-51
2020/12/20 06:08:17;;;;;;;28.90;3.45;;;10.40;99.90;;;;;;5076381;28;20032;-49
2020/12/20 06:10:50;;;;;;;9.15;1.83;;;10.20;99.90;;;;;;5068364;28;20078;-48
2020/12/20 06:13:21;;;;;;;12.38;1.48;;;9.70;99.90;;;;;;5067263;28;20040;-50
2020/12/20 06:15:52;;;;;;;14.77;1.77;;;9.30;99.90;;;;;;5069729;28;20035;-51
2020/12/20 06:18:23;;;;;;;4.38;1.45;;;9.10;99.90;;;;;;5066397;28;20024;-50
2020/12/20 06:20:57;;;;;;;12.48;1.30;;;8.80;99.90;;;;;;5066598;28;20044;-50
2020/12/20 06:23:26;;;;;;;13.60;1.85;;;8.50;99.90;;;;;;5066599;28;20064;-55
2020/12/20 06:25:53;;;;;;;11.50;1.65;;;8.20;99.90;;;;;;5066778;28;20043;-57
2020/12/20 06:28:30;;;;;;;9.30;2.33;;;7.90;99.90;;;;;;5066086;28;20120;-54
2020/12/20 06:30:57;;;;;;;8.18;1.20;;;7.80;99.90;;;;;;5066832;28;20031;-54
2020/12/20 06:33:35;;;;;;;13.40;1.33;;;7.70;99.90;;;;;;5067353;28;20064;-53
2020/12/20 06:36:03;;;;;;;10.35;1.38;;;7.70;99.90;;;;;;5067755;28;20064;-54
2020/12/20 06:38:29;;;;;;;9.25;1.50;;;7.70;99.90;;;;;;5067992;28;20037;-55
2020/12/20 06:40:55;;;;;;;9.30;1.20;;;7.60;99.90;;;;;;5067847;28;20063;-55
2020/12/20 06:43:34;;;;;;;11.88;1.85;;;7.60;99.90;;;;;;5067729;28;20089;-55
2020/12/20 06:46:01;;;;;;;21.30;2.67;;;7.60;99.90;;;;;;5067670;28;20033;-54
2020/12/20 06:48:45;;;;;;;12.20;1.48;;;7.60;99.90;;;;;;5067556;28;20028;-55
2020/12/20 06:51:27;;;;;;;11.65;1.48;;;7.60;99.90;;;;;;5067820;28;20119;-55
2020/12/20 06:53:53;;;;;;;13.70;2.15;;;7.70;99.90;;;;;;5067248;28;20028;-57
2020/12/20 06:56:22;;;;;;;11.88;1.77;;;7.70;99.90;;;;;;5067468;28;20482;-55
2020/12/20 06:58:56;;;;;;;12.77;1.20;;;7.70;99.90;;;;;;5079465;28;20031;-58
2020/12/20 07:01:36;;;;;;;12.68;1.80;;;7.80;99.90;;;;;;5066404;28;20040;-52
2020/12/20 07:04:03;;;;;;;16.55;2.22;;;7.80;99.90;;;;;;5078456;28;20024;-54
2020/12/20 07:06:29;;;;;;;20.45;2.58;;;7.90;99.90;;;;;;5090882;28;20078;-55
2020/12/20 07:09:00;;;;;;;18.20;2.38;;;7.90;99.90;;;;;;5083835;28;20044;-55
2020/12/20 07:11:27;;;;;;;23.17;1.92;;;7.90;99.90;;;;;;5076783;28;20036;-56
2020/12/20 07:13:56;;;;;;;12.93;1.40;;;7.90;99.90;;;;;;5089387;28;20032;-55
2020/12/20 07:16:24;;;;;;;23.10;2.53;;;8.00;99.90;;;;;;5090010;28;20470;-55
2020/12/20 07:19:03;;;;;;;17.90;2.30;;;8.00;99.90;;;;;;5074419;28;20516;-55
2020/12/20 07:21:29;;;;;;;14.82;2.20;;;8.00;99.90;;;;;;5076809;28;20304;-56
2020/12/20 07:24:04;;;;;;;19.27;1.75;;;8.00;99.90;;;;;;5084548;28;20420;-53
2020/12/20 07:26:31;;;;;;;22.10;2.05;;;8.00;99.90;;;;;;5090654;28;20446;-56
2020/12/20 07:29:02;;;;;;;12.32;2.40;;;8.10;99.90;;;;;;5083609;28;20081;-55
2020/12/20 07:31:29;;;;;;;22.70;2.15;;;8.10;99.90;;;;;;5086504;28;20367;-54
2020/12/20 07:33:54;;;;;;;19.80;2.88;;;8.00;99.90;;;;;;5082759;28;20039;-52
2020/12/20 07:36:21;;;;;;;9.25;2.00;;;8.00;99.90;;;;;;5089243;28;20048;-54
2020/12/20 07:38:50;;;;;;;18.63;1.77;;;8.00;99.90;;;;;;5080579;28;20495;-54
2020/12/20 07:41:17;;;;;;;12.45;2.00;;;8.00;99.90;;;;;;5083909;28;20036;-55
2020/12/20 07:43:50;;;;;;;27.10;2.15;;;8.00;99.90;;;;;;5071492;28;20050;-56
2020/12/20 07:46:16;;;;;;;14.45;2.13;;;8.00;99.90;;;;;;5068988;28;20024;-53
2020/12/20 07:48:42;;;;;;;17.50;1.80;;;8.10;99.90;;;;;;5072315;28;20034;-56
2020/12/20 07:51:12;;;;;;;17.23;2.42;;;8.10;99.90;;;;;;5090241;28;20036;-52
2020/12/20 07:53:45;;;;;;;20.65;2.50;;;8.20;99.90;;;;;;5076727;28;20035;-55
2020/12/20 07:56:20;;;;;;;25.17;3.42;;;8.20;99.90;;;;;;5088744;28;20036;-55
2020/12/20 07:58:46;;;;;;;23.38;1.80;;;8.20;99.90;;;;;;5077643;28;20033;-55
2020/12/20 08:01:12;;;;;;;20.00;2.30;;;8.20;99.90;;;;;;5081218;28;20055;-54
2020/12/20 08:03:38;;;;;;;20.33;2.90;;;8.20;99.90;;;;;;5082146;28;20389;-54
2020/12/20 08:06:11;;;;;;;17.88;2.45;;;8.10;99.90;;;;;;5083960;28;20040;-53
2020/12/20 08:08:38;;;;;;;18.05;1.85;;;8.10;99.90;;;;;;5084477;28;20043;-55
2020/12/20 08:11:20;;;;;;;18.75;1.70;;;8.00;99.90;;;;;;5088529;28;20024;-56
2020/12/20 08:13:53;;;;;;;15.50;1.98;;;8.00;99.90;;;;;;5077729;28;20029;-54
2020/12/20 08:16:24;;;;;;;10.82;1.25;;;8.00;99.90;;;;;;5086427;28;20068;-55
2020/12/20 08:18:54;;;;;;;18.20;1.77;;;8.00;99.90;;;;;;5081976;28;20711;-56
2020/12/20 08:21:32;;;;;;;12.68;1.77;;;8.00;99.90;;;;;;5088271;28;20032;-54
2020/12/20 08:23:59;;;;;;;11.57;1.90;;;8.00;99.90;;;;;;5087454;28;20048;-56
2020/12/20 08:26:29;;;;;;;11.80;1.85;;;8.10;99.90;;;;;;5087085;28;20038;-52
2020/12/20 08:28:55;;;;;;;12.25;2.47;;;8.20;99.90;;;;;;5086192;28;20056;-54
2020/12/20 08:31:21;;;;;;;11.98;1.33;;;8.20;99.90;;;;;;5087000;28;20062;-54
2020/12/20 08:33:47;;;;;;;13.13;1.80;;;8.20;99.90;;;;;;5082475;28;20056;-54
2020/12/20 08:36:19;;;;;;;16.80;1.67;;;8.30;99.90;;;;;;5082104;28;20123;-54
2020/12/20 08:38:45;;;;;;;11.30;1.65;;;8.30;99.90;;;;;;5081422;28;20040;-55
2020/12/20 08:41:20;;;;;;;9.52;2.05;;;8.50;99.90;;;;;;5086813;28;20035;-53
2020/12/20 08:43:46;;;;;;;6.35;1.50;;;8.50;99.90;;;;;;5084340;28;20171;-53
2020/12/20 08:46:32;;;;;;;10.55;1.85;;;8.50;99.90;;;;;;5083945;28;20458;-55
2020/12/20 08:49:15;;;;;;;10.40;2.33;;;8.50;99.90;;;;;;5067570;28;20074;-54
2020/12/20 08:51:45;;;;;;;15.55;2.85;;;8.40;99.90;;;;;;5078209;28;20028;-54
2020/12/20 08:54:14;;;;;;;24.83;3.85;;;8.60;99.90;;;;;;5076855;28;20143;-53
2020/12/20 08:56:57;;;;;;;15.70;2.72;;;8.60;99.90;;;;;;5081107;28;20040;-53
2020/12/20 08:59:25;;;;;;;;;;;8.80;99.90;;;;;;5085161;28;20039;-54
2020/12/20 09:01:52;;;;;;;19.50;2.67;;;8.90;99.90;;;;;;5084651;28;19912;-53
2020/12/20 09:04:17;;;;;;;17.05;3.05;;;8.90;99.90;;;;;;5074821;28;20036;-53
2020/12/20 09:06:59;;;;;;;27.85;2.83;;;8.90;99.90;;;;;;5080225;28;20116;-51
2020/12/20 09:09:25;;;;;;;19.70;2.55;;;9.10;99.90;;;;;;5069380;28;20047;-55
2020/12/20 09:11:51;;;;;;;18.65;2.20;;;9.20;99.90;;;;;;5067262;28;20028;-54
2020/12/20 09:14:17;;;;;;;16.42;3.03;;;9.30;99.90;;;;;;5085307;28;20035;-54
2020/12/20 09:16:44;;;;;;;26.00;3.40;;;9.30;99.90;;;;;;5088244;28;20044;-54
2020/12/20 09:19:13;;;;;;;18.30;2.40;;;9.50;99.90;;;;;;5085215;28;20055;-52
2020/12/20 09:21:39;;;;;;;25.17;2.22;;;9.50;99.90;;;;;;5087587;28;20044;-54
2020/12/20 09:24:05;;;;;;;31.92;3.22;;;9.60;99.90;;;;;;5073082;28;20068;-54
2020/12/20 09:26:31;;;;;;;19.48;2.70;;;9.60;99.90;;;;;;5087618;28;20449;-51
2020/12/20 09:28:56;;;;;;;25.20;3.70;;;9.60;99.90;;;;;;5083407;28;20590;-49
2020/12/20 09:31:24;;;;;;;20.83;2.70;;;9.70;99.90;;;;;;5080100;28;20043;-50
2020/12/20 09:33:52;;;;;;;18.77;2.72;;;9.80;99.90;;;;;;5072299;28;20052;-49
2020/12/20 09:36:23;;;;;;;24.63;3.03;;;9.90;99.90;;;;;;5075844;28;20156;-49
2020/12/20 09:38:51;;;;;;;24.23;3.08;;;9.90;99.90;;;;;;5066559;28;20494;-49
2020/12/20 09:41:22;;;;;;;21.92;3.05;;;9.90;99.90;;;;;;5087292;28;20020;-49
2020/12/20 09:43:50;;;;;;;24.67;2.80;;;10.00;99.90;;;;;;5084976;28;20056;-49
2020/12/20 09:46:28;;;;;;;16.83;2.15;;;10.10;99.90;;;;;;5087254;28;20028;-51
2020/12/20 09:48:56;;;;;;;17.02;2.65;;;10.10;99.90;;;;;;5083012;28;20039;-48
2020/12/20 09:51:23;;;;;;;25.90;3.75;;;10.20;99.90;;;;;;5087037;28;20031;-50
2020/12/20 09:53:50;;;;;;;19.48;2.97;;;10.20;99.90;;;;;;5086341;28;20028;-49
2020/12/20 09:56:16;;;;;;;31.42;3.35;;;10.20;99.90;;;;;;5087857;28;20090;-46
2020/12/20 09:58:42;;;;;;;41.85;5.35;;;10.40;99.90;;;;;;5081546;28;20068;-50
2020/12/20 10:01:27;;;;;;;20.45;3.05;;;10.40;99.90;;;;;;5085176;28;20419;-48
2020/12/20 10:03:53;;;;;;;16.55;2.63;;;10.50;99.90;;;;;;5083441;28;20024;-48
2020/12/20 10:06:19;;;;;;;19.35;2.83;;;10.50;99.90;;;;;;5084181;28;20035;-51
2020/12/20 10:08:45;;;;;;;29.60;2.83;;;10.50;99.90;;;;;;5073914;28;20041;-49
2020/12/20 10:11:15;;;;;;;21.98;2.70;;;10.60;99.90;;;;;;5075512;28;20121;-48
2020/12/20 10:13:41;;;;;;;22.98;2.17;;;10.70;99.90;;;;;;5074862;28;20104;-50
2020/12/20 10:16:06;;;;;;;26.80;3.70;;;10.70;99.90;;;;;;5073189;28;20106;-49
2020/12/20 10:18:32;;;;;;;29.42;2.65;;;10.90;99.90;;;;;;5081495;28;20066;-48
2020/12/20 10:20:58;;;;;;;20.75;3.15;;;11.00;99.90;;;;;;5072749;28;20032;-48
2020/12/20 10:23:23;;;;;;;25.05;2.97;;;11.10;99.90;;;;;;5081157;28;20047;-48
2020/12/20 10:25:49;;;;;;;25.52;3.20;;;11.20;99.90;;;;;;5066700;28;20040;-49
2020/12/20 10:28:15;;;;;;;21.13;2.92;;;11.30;99.90;;;;;;5083069;28;20496;-48
2020/12/20 10:30:40;;;;;;;29.50;3.38;;;11.40;99.90;;;;;;5086787;28;20109;-48
2020/12/20 10:33:06;;;;;;;15.20;3.03;;;11.60;99.90;;;;;;5084615;28;20095;-49
2020/12/20 10:35:32;;;;;;;21.13;3.35;;;11.70;99.90;;;;;;5041406;28;20032;-48
2020/12/20 10:37:58;;;;;;;22.20;3.25;;;11.60;99.90;;;;;;5078585;28;20093;-48
2020/12/20 10:40:25;;;;;;;24.60;4.07;;;11.70;99.90;;;;;;5089504;28;20078;-49
2020/12/20 10:42:51;;;;;;;36.35;3.88;;;11.70;99.90;;;;;;5086717;28;20090;-48
2020/12/20 10:45:17;;;;;;;29.08;3.95;;;11.80;99.90;;;;;;5090919;28;20466;-48
2020/12/20 10:47:43;;;;;;;24.48;2.78;;;11.80;99.90;;;;;;5083509;28;20033;-48
2020/12/20 10:50:09;;;;;;;15.73;3.13;;;11.70;99.90;;;;;;5084472;28;20020;-48
2020/12/20 10:52:36;;;;;;;16.50;2.95;;;11.70;99.90;;;;;;5079665;28;20063;-48
2020/12/20 10:55:03;;;;;;;22.20;3.08;;;11.70;99.90;;;;;;5078823;28;20440;-49
2020/12/20 10:57:28;;;;;;;28.77;3.42;;;11.80;99.90;;;;;;5084307;28;20135;-46
2020/12/20 10:59:54;;;;;;;26.33;4.00;;;11.70;99.90;;;;;;5069325;28;20509;-49
2020/12/20 11:02:20;;;;;;;21.83;2.90;;;11.10;99.90;;;;;;5075158;28;20032;-48
2020/12/20 11:04:46;;;;;;;20.85;2.40;;;10.40;99.90;;;;;;5080906;28;20069;-47
2020/12/20 11:07:12;;;;;;;40.03;3.38;;;9.90;99.90;;;;;;5069639;28;20459;-47
2020/12/20 11:09:38;;;;;;;31.92;3.28;;;9.60;99.90;;;;;;5079972;28;20035;-49
2020/12/20 11:12:05;;;;;;;28.75;3.08;;;9.40;99.90;;;;;;5090509;28;20028;-50
2020/12/20 11:14:32;;;;;;;27.30;2.95;;;9.30;99.90;;;;;;5078651;28;20036;-49
2020/12/20 11:16:59;;;;;;;21.13;2.83;;;9.30;99.90;;;;;;5089469;28;20461;-49
2020/12/20 11:19:25;;;;;;;27.17;3.78;;;9.20;99.90;;;;;;5090451;28;20024;-49
2020/12/20 11:21:52;;;;;;;33.10;3.72;;;9.20;99.90;;;;;;5084254;28;20051;-49
2020/12/20 11:24:18;;;;;;;25.42;3.38;;;9.20;99.90;;;;;;5075731;28;20048;-48
2020/12/20 11:26:45;;;;;;;35.78;3.38;;;9.20;99.90;;;;;;5083206;28;20043;-51
2020/12/20 11:29:13;;;;;;;31.73;3.67;;;9.30;99.90;;;;;;5086762;28;20082;-51
2020/12/20 11:31:39;;;;;;;27.25;3.58;;;9.40;99.90;;;;;;5090006;28;20813;-50
2020/12/20 11:34:06;;;;;;;29.85;3.63;;;9.40;99.90;;;;;;5084931;28;20032;-48
2020/12/20 11:36:32;;;;;;;19.83;3.25;;;9.40;99.90;;;;;;5054560;28;20597;-49
2020/12/20 11:38:58;;;;;;;23.17;3.22;;;9.40;99.90;;;;;;5086085;28;20497;-49
2020/12/20 11:41:26;;;;;;;22.65;2.60;;;9.40;99.90;;;;;;5089315;28;20074;-49
2020/12/20 11:43:53;;;;;;;18.25;2.60;;;9.30;99.90;;;;;;5087648;28;20130;-49
2020/12/20 11:46:19;;;;;;;21.33;2.42;;;9.30;99.90;;;;;;5089549;28;20081;-48
2020/12/20 11:48:51;;;;;;;14.55;2.90;;;9.30;99.90;;;;;;5083431;28;20036;-51
2020/12/20 11:51:18;;;;;;;28.55;3.22;;;9.30;99.90;;;;;;5080772;28;20063;-48
2020/12/20 11:53:44;;;;;;;33.78;3.63;;;9.30;99.90;;;;;;5086204;28;20549;-51
2020/12/20 11:56:11;;;;;;;22.90;2.13;;;9.20;99.90;;;;;;5089472;28;20123;-48
2020/12/20 11:58:38;;;;;;;13.85;2.20;;;9.40;99.90;;;;;;5082062;28;20070;-49
2020/12/20 12:01:04;;;;;;;14.48;1.98;;;9.80;99.90;;;;;;5089542;28;20023;-49
2020/12/20 12:03:30;;;;;;;31.80;3.10;;;10.10;99.90;;;;;;5084196;28;20032;-48
2020/12/20 12:05:59;;;;;;;17.27;2.60;;;10.50;99.90;;;;;;5081762;28;20584;-51
2020/12/20 12:08:25;;;;;;;15.80;2.20;;;10.90;99.90;;;;;;5069950;28;20037;-50
2020/12/20 12:10:52;;;;;;;16.92;2.33;;;11.10;99.90;;;;;;5088817;28;20081;-51
2020/12/20 12:13:18;;;;;;;17.52;2.80;;;11.30;99.90;;;;;;5088308;28;20115;-52
2020/12/20 12:15:45;;;;;;;27.20;3.03;;;11.40;99.90;;;;;;5089685;28;20107;-49
2020/12/20 12:18:11;;;;;;;20.27;2.60;;;11.10;99.90;;;;;;5084198;28;20097;-48
2020/12/20 12:20:37;;;;;;;34.22;3.17;;;10.60;99.90;;;;;;5082350;28;20409;-51
2020/12/20 12:23:03;;;;;;;22.73;1.92;;;10.30;99.90;;;;;;5082489;28;20546;-49
2020/12/20 12:25:29;;;;;;;18.95;2.45;;;10.20;99.90;;;;;;5079337;28;20463;-48
2020/12/20 12:27:55;;;;;;;28.33;2.50;;;10.00;99.90;;;;;;5079441;28;20073;-49
2020/12/20 12:30:21;;;;;;;18.75;2.72;;;10.00;99.90;;;;;;5088204;28;20024;-51
2020/12/20 12:32:47;;;;;;;18.17;3.08;;;10.00;99.90;;;;;;5088417;28;20438;-47
2020/12/20 12:35:13;;;;;;;30.60;3.40;;;9.90;99.90;;;;;;5088579;28;20465;-48
2020/12/20 12:37:38;;;;;;;41.88;3.88;;;9.90;99.90;;;;;;5080288;28;20076;-48
2020/12/20 12:40:06;;;;;;;35.10;3.33;;;9.80;99.90;;;;;;5080524;28;20078;-48
2020/12/20 12:42:32;;;;;;;29.40;3.92;;;9.60;99.90;;;;;;5077831;28;20036;-48
2020/12/20 12:44:57;;;;;;;31.42;3.33;;;9.40;99.90;;;;;;5086235;28;20032;-48
2020/12/20 12:47:23;;;;;;;41.78;3.25;;;9.30;99.90;;;;;;5076446;28;20730;-48
2020/12/20 12:49:49;;;;;;;32.42;4.47;;;9.30;99.90;;;;;;5074830;28;20024;-48